sensor_id;sensor_type;location;lat;lon;timestamp;P1;durP1;ratioP1;P2;durP2;ratioP2
84284;SDS011;74441;49.470;11.032;2024-03-08T00:02:14;5.47;;;3.83;;
84284;SDS011;74441;49.470;11.032;2024-03-08T00:04:40;6.22;;;4.28;;
84284;SDS011;74441;49.470;11.032;2024-03-08T00:07:05;5.55;;;4.15;;
84284;SDS011;74441;49.470;11.032;2024-03-08T00:09:31;7.38;;;4.20;;
84284;SDS011;74441;49.470;11.032;2024-03-08T00:11:56;5.30;;;3.78;;
84284;SDS011;74441;49.470;11.032;2024-03-08T00:14:22;4.93;;;3.60;;
84284;SDS011;74441;49.470;11.032;2024-03-08T00:16:47;5.77;;;4.00;;
84284;SDS011;74441;49.470;11.032;2024-03-08T00:19:13;6.95;;;4.38;;
84284;SDS011;74441;49.470;11.032;2024-03-08T00:21:38;4.83;;;3.60;;
84284;SDS011;74441;49.470;11.032;2024-03-08T00:24:03;6.22;;;4.18;;
84284;SDS011;74441;49.470;11.032;2024-03-08T00:26:29;4.82;;;3.40;;
84284;SDS011;74441;49.470;11.032;2024-03-08T00:28:54;5.22;;;3.70;;
84284;SDS011;74441;49.470;11.032;2024-03-08T00:31:20;6.15;;;4.00;;
84284;SDS011;74441;49.470;11.032;2024-03-08T00:33:45;5.03;;;3.80;;
84284;SDS011;74441;49.470;11.032;2024-03-08T00:36:10;5.00;;;3.60;;
84284;SDS011;74441;49.470;11.032;2024-03-08T00:38:36;5.93;;;3.97;;
84284;SDS011;74441;49.470;11.032;2024-03-08T00:41:01;4.95;;;3.47;;
84284;SDS011;74441;49.470;11.032;2024-03-08T00:43:27;5.13;;;3.83;;
84284;SDS011;74441;49.470;11.032;2024-03-08T00:45:52;5.95;;;3.55;;
84284;SDS011;74441;49.470;11.032;2024-03-08T00:48:17;5.17;;;3.70;;
84284;SDS011;74441;49.470;11.032;2024-03-08T00:50:43;5.32;;;3.95;;
84284;SDS011;74441;49.470;11.032;2024-03-08T00:53:10;6.15;;;4.10;;
84284;SDS011;74441;49.470;11.032;2024-03-08T00:55:36;5.10;;;3.53;;
84284;SDS011;74441;49.470;11.032;2024-03-08T00:58:03;4.80;;;3.63;;
84284;SDS011;74441;49.470;11.032;2024-03-08T01:00:28;6.88;;;4.57;;
84284;SDS011;74441;49.470;11.032;2024-03-08T01:02:54;6.25;;;4.03;;
84284;SDS011;74441;49.470;11.032;2024-03-08T01:05:19;6.17;;;3.93;;
84284;SDS011;74441;49.470;11.032;2024-03-08T01:07:44;5.13;;;3.72;;
84284;SDS011;74441;49.470;11.032;2024-03-08T01:10:11;6.00;;;3.78;;
84284;SDS011;74441;49.470;11.032;2024-03-08T01:12:37;7.28;;;4.30;;
84284;SDS011;74441;49.470;11.032;2024-03-08T01:15:02;4.78;;;3.60;;
84284;SDS011;74441;49.470;11.032;2024-03-08T01:17:28;4.78;;;3.53;;
84284;SDS011;74441;49.470;11.032;2024-03-08T01:19:53;5.70;;;3.75;;
84284;SDS011;74441;49.470;11.032;2024-03-08T01:22:19;5.18;;;3.72;;
84284;SDS011;74441;49.470;11.032;2024-03-08T01:24:44;5.43;;;3.70;;
84284;SDS011;74441;49.470;11.032;2024-03-08T01:27:10;4.93;;;3.58;;
84284;SDS011;74441;49.470;11.032;2024-03-08T01:29:36;5.07;;;3.78;;
84284;SDS011;74441;49.470;11.032;2024-03-08T01:32:02;5.47;;;3.58;;
84284;SDS011;74441;49.470;11.032;2024-03-08T01:34:28;5.50;;;3.90;;
84284;SDS011;74441;49.470;11.032;2024-03-08T01:36:53;5.30;;;3.60;;
84284;SDS011;74441;49.470;11.032;2024-03-08T01:39:20;5.68;;;4.30;;
84284;SDS011;74441;49.470;11.032;2024-03-08T01:41:46;5.03;;;3.47;;
84284;SDS011;74441;49.470;11.032;2024-03-08T01:44:12;4.72;;;3.35;;
84284;SDS011;74441;49.470;11.032;2024-03-08T01:46:40;5.28;;;3.80;;
84284;SDS011;74441;49.470;11.032;2024-03-08T01:49:06;5.63;;;4.00;;
84284;SDS011;74441;49.470;11.032;2024-03-08T01:51:31;4.70;;;3.50;;
84284;SDS011;74441;49.470;11.032;2024-03-08T01:53:57;4.97;;;3.85;;
84284;SDS011;74441;49.470;11.032;2024-03-08T01:56:22;5.70;;;3.95;;
84284;SDS011;74441;49.470;11.032;2024-03-08T01:58:48;4.97;;;3.65;;
84284;SDS011;74441;49.470;11.032;2024-03-08T02:01:14;5.82;;;4.38;;
84284;SDS011;74441;49.470;11.032;2024-03-08T02:03:40;4.68;;;3.78;;
84284;SDS011;74441;49.470;11.032;2024-03-08T02:06:05;5.75;;;3.92;;
84284;SDS011;74441;49.470;11.032;2024-03-08T02:08:35;5.05;;;3.70;;
84284;SDS011;74441;49.470;11.032;2024-03-08T02:11:00;5.63;;;4.00;;
84284;SDS011;74441;49.470;11.032;2024-03-08T02:13:27;5.30;;;3.90;;
84284;SDS011;74441;49.470;11.032;2024-03-08T02:15:57;4.93;;;3.60;;
84284;SDS011;74441;49.470;11.032;2024-03-08T02:18:27;5.22;;;4.05;;
84284;SDS011;74441;49.470;11.032;2024-03-08T02:20:56;5.38;;;3.78;;
84284;SDS011;74441;49.470;11.032;2024-03-08T02:23:27;5.22;;;3.60;;
84284;SDS011;74441;49.470;11.032;2024-03-08T02:25:53;5.20;;;3.80;;
84284;SDS011;74441;49.470;11.032;2024-03-08T02:28:19;5.00;;;3.70;;
84284;SDS011;74441;49.470;11.032;2024-03-08T02:30:45;5.55;;;3.95;;
84284;SDS011;74441;49.470;11.032;2024-03-08T02:33:14;5.97;;;3.67;;
84284;SDS011;74441;49.470;11.032;2024-03-08T02:35:43;4.22;;;3.47;;
84284;SDS011;74441;49.470;11.032;2024-03-08T02:38:10;5.22;;;3.63;;
84284;SDS011;74441;49.470;11.032;2024-03-08T02:40:36;6.35;;;4.10;;
84284;SDS011;74441;49.470;11.032;2024-03-08T02:43:01;5.30;;;3.47;;
84284;SDS011;74441;49.470;11.032;2024-03-08T02:45:27;4.80;;;3.70;;
84284;SDS011;74441;49.470;11.032;2024-03-08T02:47:52;5.30;;;3.60;;
84284;SDS011;74441;49.470;11.032;2024-03-08T02:50:17;4.90;;;3.50;;
84284;SDS011;74441;49.470;11.032;2024-03-08T02:52:43;4.07;;;3.25;;
84284;SDS011;74441;49.470;11.032;2024-03-08T02:55:09;6.05;;;3.95;;
84284;SDS011;74441;49.470;11.032;2024-03-08T02:57:35;4.97;;;3.53;;
84284;SDS011;74441;49.470;11.032;2024-03-08T03:00:01;5.15;;;3.80;;
84284;SDS011;74441;49.470;11.032;2024-03-08T03:02:27;6.38;;;3.58;;
84284;SDS011;74441;49.470;11.032;2024-03-08T03:04:52;5.28;;;3.60;;
84284;SDS011;74441;49.470;11.032;2024-03-08T03:07:18;5.38;;;3.80;;
84284;SDS011;74441;49.470;11.032;2024-03-08T03:09:44;4.82;;;3.72;;
84284;SDS011;74441;49.470;11.032;2024-03-08T03:12:10;5.63;;;3.97;;
84284;SDS011;74441;49.470;11.032;2024-03-08T03:14:35;6.07;;;3.83;;
84284;SDS011;74441;49.470;11.032;2024-03-08T03:17:03;5.30;;;4.00;;
84284;SDS011;74441;49.470;11.032;2024-03-08T03:19:29;4.72;;;3.50;;
84284;SDS011;74441;49.470;11.032;2024-03-08T03:21:55;4.93;;;3.63;;
84284;SDS011;74441;49.470;11.032;2024-03-08T03:24:20;5.88;;;4.00;;
84284;SDS011;74441;49.470;11.032;2024-03-08T03:26:46;5.03;;;3.90;;
84284;SDS011;74441;49.470;11.032;2024-03-08T03:29:13;4.70;;;3.17;;
84284;SDS011;74441;49.470;11.032;2024-03-08T03:31:38;5.05;;;3.63;;
84284;SDS011;74441;49.470;11.032;2024-03-08T03:34:05;5.32;;;3.60;;
84284;SDS011;74441;49.470;11.032;2024-03-08T03:36:33;4.88;;;4.10;;
84284;SDS011;74441;49.470;11.032;2024-03-08T03:39:00;5.00;;;3.60;;
84284;SDS011;74441;49.470;11.032;2024-03-08T03:41:41;5.97;;;3.95;;
84284;SDS011;74441;49.470;11.032;2024-03-08T03:44:11;5.65;;;3.63;;
84284;SDS011;74441;49.470;11.032;2024-03-08T03:46:36;4.47;;;3.50;;
84284;SDS011;74441;49.470;11.032;2024-03-08T03:49:01;4.20;;;3.45;;
84284;SDS011;74441;49.470;11.032;2024-03-08T03:51:28;4.72;;;3.67;;
84284;SDS011;74441;49.470;11.032;2024-03-08T03:53:54;4.43;;;3.63;;
84284;SDS011;74441;49.470;11.032;2024-03-08T03:56:24;5.47;;;4.00;;
84284;SDS011;74441;49.470;11.032;2024-03-08T03:58:50;6.70;;;3.78;;
84284;SDS011;74441;49.470;11.032;2024-03-08T04:01:16;5.65;;;4.15;;
84284;SDS011;74441;49.470;11.032;2024-03-08T04:03:41;5.10;;;3.90;;
84284;SDS011;74441;49.470;11.032;2024-03-08T04:06:08;4.47;;;3.58;;
84284;SDS011;74441;49.470;11.032;2024-03-08T04:08:33;4.97;;;3.63;;
84284;SDS011;74441;49.470;11.032;2024-03-08T04:10:59;5.22;;;3.63;;
84284;SDS011;74441;49.470;11.032;2024-03-08T04:13:25;4.75;;;3.70;;
84284;SDS011;74441;49.470;11.032;2024-03-08T04:15:51;5.72;;;3.95;;
84284;SDS011;74441;49.470;11.032;2024-03-08T04:18:16;5.97;;;3.80;;
84284;SDS011;74441;49.470;11.032;2024-03-08T04:20:43;5.32;;;3.90;;
84284;SDS011;74441;49.470;11.032;2024-03-08T04:23:08;5.50;;;4.00;;
84284;SDS011;74441;49.470;11.032;2024-03-08T04:25:33;5.63;;;3.83;;
84284;SDS011;74441;49.470;11.032;2024-03-08T04:27:59;4.80;;;3.67;;
84284;SDS011;74441;49.470;11.032;2024-03-08T04:30:24;5.50;;;3.77;;
84284;SDS011;74441;49.470;11.032;2024-03-08T04:32:49;5.43;;;3.93;;
84284;SDS011;74441;49.470;11.032;2024-03-08T04:35:15;5.70;;;3.90;;
84284;SDS011;74441;49.470;11.032;2024-03-08T04:37:40;5.40;;;3.85;;
84284;SDS011;74441;49.470;11.032;2024-03-08T04:40:06;5.70;;;4.00;;
84284;SDS011;74441;49.470;11.032;2024-03-08T04:42:31;5.72;;;4.45;;
84284;SDS011;74441;49.470;11.032;2024-03-08T04:45:00;5.78;;;4.00;;
84284;SDS011;74441;49.470;11.032;2024-03-08T04:47:26;4.97;;;3.90;;
84284;SDS011;74441;49.470;11.032;2024-03-08T04:49:51;4.53;;;3.23;;
84284;SDS011;74441;49.470;11.032;2024-03-08T04:52:16;6.30;;;4.13;;
84284;SDS011;74441;49.470;11.032;2024-03-08T04:54:42;5.47;;;4.20;;
84284;SDS011;74441;49.470;11.032;2024-03-08T04:57:08;5.18;;;3.97;;
84284;SDS011;74441;49.470;11.032;2024-03-08T04:59:33;5.93;;;4.18;;
84284;SDS011;74441;49.470;11.032;2024-03-08T05:01:58;5.10;;;3.87;;
84284;SDS011;74441;49.470;11.032;2024-03-08T05:04:24;5.30;;;3.90;;
84284;SDS011;74441;49.470;11.032;2024-03-08T05:06:49;5.53;;;3.95;;
84284;SDS011;74441;49.470;11.032;2024-03-08T05:09:14;7.43;;;4.60;;
84284;SDS011;74441;49.470;11.032;2024-03-08T05:11:43;4.38;;;3.70;;
84284;SDS011;74441;49.470;11.032;2024-03-08T05:14:09;4.75;;;3.63;;
84284;SDS011;74441;49.470;11.032;2024-03-08T05:16:35;5.57;;;3.90;;
84284;SDS011;74441;49.470;11.032;2024-03-08T05:19:00;5.28;;;3.72;;
84284;SDS011;74441;49.470;11.032;2024-03-08T05:21:26;7.50;;;4.45;;
84284;SDS011;74441;49.470;11.032;2024-03-08T05:23:51;6.10;;;3.90;;
84284;SDS011;74441;49.470;11.032;2024-03-08T05:26:16;5.43;;;3.80;;
84284;SDS011;74441;49.470;11.032;2024-03-08T05:28:42;5.10;;;4.23;;
84284;SDS011;74441;49.470;11.032;2024-03-08T05:31:07;5.32;;;3.70;;
84284;SDS011;74441;49.470;11.032;2024-03-08T05:33:33;4.95;;;3.65;;
84284;SDS011;74441;49.470;11.032;2024-03-08T05:35:59;6.07;;;4.22;;
84284;SDS011;74441;49.470;11.032;2024-03-08T05:38:26;5.03;;;4.03;;
84284;SDS011;74441;49.470;11.032;2024-03-08T05:40:52;6.38;;;4.60;;
84284;SDS011;74441;49.470;11.032;2024-03-08T05:43:18;5.60;;;4.25;;
84284;SDS011;74441;49.470;11.032;2024-03-08T05:45:44;5.88;;;4.03;;
84284;SDS011;74441;49.470;11.032;2024-03-08T05:48:10;6.43;;;4.30;;
84284;SDS011;74441;49.470;11.032;2024-03-08T05:50:37;6.28;;;4.10;;
84284;SDS011;74441;49.470;11.032;2024-03-08T05:53:03;6.35;;;4.72;;
84284;SDS011;74441;49.470;11.032;2024-03-08T05:55:31;5.85;;;4.07;;
84284;SDS011;74441;49.470;11.032;2024-03-08T05:58:00;4.75;;;3.80;;
84284;SDS011;74441;49.470;11.032;2024-03-08T06:00:26;5.07;;;3.97;;
84284;SDS011;74441;49.470;11.032;2024-03-08T06:02:51;6.28;;;4.70;;
84284;SDS011;74441;49.470;11.032;2024-03-08T06:05:16;5.60;;;4.20;;
84284;SDS011;74441;49.470;11.032;2024-03-08T06:07:42;6.22;;;4.57;;
84284;SDS011;74441;49.470;11.032;2024-03-08T06:10:08;6.57;;;4.75;;
84284;SDS011;74441;49.470;11.032;2024-03-08T06:12:42;6.00;;;4.40;;
84284;SDS011;74441;49.470;11.032;2024-03-08T06:15:08;5.68;;;4.28;;
84284;SDS011;74441;49.470;11.032;2024-03-08T06:17:34;6.63;;;4.45;;
84284;SDS011;74441;49.470;11.032;2024-03-08T06:20:00;6.10;;;4.13;;
84284;SDS011;74441;49.470;11.032;2024-03-08T06:22:26;6.35;;;4.30;;
84284;SDS011;74441;49.470;11.032;2024-03-08T06:24:51;5.67;;;4.40;;
84284;SDS011;74441;49.470;11.032;2024-03-08T06:27:19;5.88;;;4.07;;
84284;SDS011;74441;49.470;11.032;2024-03-08T06:29:44;7.10;;;4.72;;
84284;SDS011;74441;49.470;11.032;2024-03-08T06:32:09;5.57;;;4.23;;
84284;SDS011;74441;49.470;11.032;2024-03-08T06:34:35;5.43;;;4.45;;
84284;SDS011;74441;49.470;11.032;2024-03-08T06:37:00;5.95;;;4.55;;
84284;SDS011;74441;49.470;11.032;2024-03-08T06:39:26;6.43;;;4.50;;
84284;SDS011;74441;49.470;11.032;2024-03-08T06:41:53;5.75;;;4.00;;
84284;SDS011;74441;49.470;11.032;2024-03-08T06:44:19;6.53;;;4.50;;
84284;SDS011;74441;49.470;11.032;2024-03-08T06:46:46;6.38;;;4.40;;
84284;SDS011;74441;49.470;11.032;2024-03-08T06:49:13;6.47;;;4.10;;
84284;SDS011;74441;49.470;11.032;2024-03-08T06:51:38;6.72;;;4.50;;
84284;SDS011;74441;49.470;11.032;2024-03-08T06:54:06;5.25;;;4.03;;
84284;SDS011;74441;49.470;11.032;2024-03-08T06:56:33;8.18;;;4.22;;
84284;SDS011;74441;49.470;11.032;2024-03-08T06:58:59;5.20;;;3.83;;
84284;SDS011;74441;49.470;11.032;2024-03-08T07:01:24;6.70;;;4.80;;
84284;SDS011;74441;49.470;11.032;2024-03-08T07:03:49;7.03;;;4.60;;
84284;SDS011;74441;49.470;11.032;2024-03-08T07:06:17;5.43;;;4.32;;
84284;SDS011;74441;49.470;11.032;2024-03-08T07:08:44;7.15;;;4.70;;
84284;SDS011;74441;49.470;11.032;2024-03-08T07:11:11;6.32;;;4.30;;
84284;SDS011;74441;49.470;11.032;2024-03-08T07:13:36;6.35;;;4.70;;
84284;SDS011;74441;49.470;11.032;2024-03-08T07:16:03;5.85;;;4.30;;
84284;SDS011;74441;49.470;11.032;2024-03-08T07:18:29;6.65;;;4.72;;
84284;SDS011;74441;49.470;11.032;2024-03-08T07:20:54;6.90;;;4.45;;
84284;SDS011;74441;49.470;11.032;2024-03-08T07:23:20;5.80;;;4.18;;
84284;SDS011;74441;49.470;11.032;2024-03-08T07:26:04;6.47;;;4.40;;
84284;SDS011;74441;49.470;11.032;2024-03-08T07:28:29;5.50;;;4.25;;
84284;SDS011;74441;49.470;11.032;2024-03-08T07:30:55;5.88;;;4.13;;
84284;SDS011;74441;49.470;11.032;2024-03-08T07:33:34;6.57;;;4.70;;
84284;SDS011;74441;49.470;11.032;2024-03-08T07:36:00;6.20;;;4.32;;
84284;SDS011;74441;49.470;11.032;2024-03-08T07:38:26;7.13;;;4.38;;
84284;SDS011;74441;49.470;11.032;2024-03-08T07:40:51;6.40;;;4.18;;
84284;SDS011;74441;49.470;11.032;2024-03-08T07:43:17;6.13;;;4.50;;
84284;SDS011;74441;49.470;11.032;2024-03-08T07:45:42;6.40;;;4.38;;
84284;SDS011;74441;49.470;11.032;2024-03-08T07:48:08;6.13;;;4.50;;
84284;SDS011;74441;49.470;11.032;2024-03-08T07:50:38;5.80;;;4.30;;
84284;SDS011;74441;49.470;11.032;2024-03-08T07:53:04;6.63;;;4.50;;
84284;SDS011;74441;49.470;11.032;2024-03-08T07:55:31;5.93;;;4.30;;
84284;SDS011;74441;49.470;11.032;2024-03-08T07:58:00;5.60;;;4.22;;
84284;SDS011;74441;49.470;11.032;2024-03-08T08:00:25;5.88;;;4.18;;
84284;SDS011;74441;49.470;11.032;2024-03-08T08:02:52;5.80;;;3.90;;
84284;SDS011;74441;49.470;11.032;2024-03-08T08:05:18;6.68;;;4.40;;
84284;SDS011;74441;49.470;11.032;2024-03-08T08:07:44;5.75;;;3.97;;
84284;SDS011;74441;49.470;11.032;2024-03-08T08:10:11;6.25;;;4.20;;
84284;SDS011;74441;49.470;11.032;2024-03-08T08:12:43;5.80;;;4.30;;
84284;SDS011;74441;49.470;11.032;2024-03-08T08:15:08;5.13;;;4.00;;
84284;SDS011;74441;49.470;11.032;2024-03-08T08:17:34;6.38;;;4.30;;
84284;SDS011;74441;49.470;11.032;2024-03-08T08:19:59;6.10;;;4.55;;
84284;SDS011;74441;49.470;11.032;2024-03-08T08:22:25;6.13;;;4.07;;
84284;SDS011;74441;49.470;11.032;2024-03-08T08:24:50;5.82;;;4.32;;
84284;SDS011;74441;49.470;11.032;2024-03-08T08:27:17;5.63;;;4.28;;
84284;SDS011;74441;49.470;11.032;2024-03-08T08:29:42;5.30;;;3.80;;
84284;SDS011;74441;49.470;11.032;2024-03-08T08:32:08;5.22;;;4.30;;
84284;SDS011;74441;49.470;11.032;2024-03-08T08:34:33;6.47;;;4.25;;
84284;SDS011;74441;49.470;11.032;2024-03-08T08:36:58;5.82;;;4.35;;
84284;SDS011;74441;49.470;11.032;2024-03-08T08:39:24;4.93;;;3.88;;
84284;SDS011;74441;49.470;11.032;2024-03-08T08:41:50;5.35;;;3.92;;
84284;SDS011;74441;49.470;11.032;2024-03-08T08:44:16;5.93;;;4.45;;
84284;SDS011;74441;49.470;11.032;2024-03-08T08:46:41;6.73;;;4.40;;
84284;SDS011;74441;49.470;11.032;2024-03-08T08:49:07;6.05;;;4.43;;
84284;SDS011;74441;49.470;11.032;2024-03-08T08:51:35;5.03;;;3.92;;
84284;SDS011;74441;49.470;11.032;2024-03-08T08:54:01;5.95;;;3.83;;
84284;SDS011;74441;49.470;11.032;2024-03-08T08:56:27;5.07;;;3.95;;
84284;SDS011;74441;49.470;11.032;2024-03-08T08:58:53;4.53;;;3.85;;
84284;SDS011;74441;49.470;11.032;2024-03-08T09:01:19;6.07;;;3.97;;
84284;SDS011;74441;49.470;11.032;2024-03-08T09:03:45;4.97;;;3.38;;
84284;SDS011;74441;49.470;11.032;2024-03-08T09:06:11;4.70;;;3.45;;
84284;SDS011;74441;49.470;11.032;2024-03-08T09:08:38;4.45;;;3.45;;
84284;SDS011;74441;49.470;11.032;2024-03-08T09:11:05;5.05;;;3.60;;
84284;SDS011;74441;49.470;11.032;2024-03-08T09:13:31;5.63;;;3.67;;
84284;SDS011;74441;49.470;11.032;2024-03-08T09:15:58;4.97;;;3.80;;
84284;SDS011;74441;49.470;11.032;2024-03-08T09:18:23;4.70;;;3.27;;
84284;SDS011;74441;49.470;11.032;2024-03-08T09:20:49;5.20;;;3.63;;
84284;SDS011;74441;49.470;11.032;2024-03-08T09:23:14;5.32;;;3.60;;
84284;SDS011;74441;49.470;11.032;2024-03-08T09:25:41;4.55;;;3.28;;
84284;SDS011;74441;49.470;11.032;2024-03-08T09:28:07;4.78;;;3.47;;
84284;SDS011;74441;49.470;11.032;2024-03-08T09:30:32;4.40;;;3.33;;
84284;SDS011;74441;49.470;11.032;2024-03-08T09:32:59;4.93;;;3.13;;
84284;SDS011;74441;49.470;11.032;2024-03-08T09:35:24;4.82;;;3.15;;
84284;SDS011;74441;49.470;11.032;2024-03-08T09:37:50;4.88;;;3.20;;
84284;SDS011;74441;49.470;11.032;2024-03-08T09:40:16;5.28;;;3.47;;
84284;SDS011;74441;49.470;11.032;2024-03-08T09:42:44;4.20;;;3.33;;
84284;SDS011;74441;49.470;11.032;2024-03-08T09:45:12;4.45;;;3.53;;
84284;SDS011;74441;49.470;11.032;2024-03-08T09:47:44;4.82;;;3.30;;
84284;SDS011;74441;49.470;11.032;2024-03-08T09:50:09;4.88;;;3.33;;
84284;SDS011;74441;49.470;11.032;2024-03-08T09:52:37;4.20;;;3.00;;
84284;SDS011;74441;49.470;11.032;2024-03-08T09:55:05;4.10;;;3.05;;
84284;SDS011;74441;49.470;11.032;2024-03-08T09:57:32;4.45;;;3.08;;
84284;SDS011;74441;49.470;11.032;2024-03-08T09:59:58;4.20;;;3.00;;
84284;SDS011;74441;49.470;11.032;2024-03-08T10:02:23;3.78;;;2.83;;
84284;SDS011;74441;49.470;11.032;2024-03-08T10:04:49;4.33;;;3.03;;
84284;SDS011;74441;49.470;11.032;2024-03-08T10:07:18;5.00;;;3.30;;
84284;SDS011;74441;49.470;11.032;2024-03-08T10:09:43;4.18;;;3.03;;
84284;SDS011;74441;49.470;11.032;2024-03-08T10:12:14;4.90;;;3.40;;
84284;SDS011;74441;49.470;11.032;2024-03-08T10:14:44;4.28;;;3.10;;
84284;SDS011;74441;49.470;11.032;2024-03-08T10:17:09;5.25;;;3.50;;
84284;SDS011;74441;49.470;11.032;2024-03-08T10:19:34;5.53;;;2.95;;
84284;SDS011;74441;49.470;11.032;2024-03-08T10:22:00;4.70;;;3.47;;
84284;SDS011;74441;49.470;11.032;2024-03-08T10:24:25;4.50;;;3.42;;
84284;SDS011;74441;49.470;11.032;2024-03-08T10:26:58;4.20;;;3.05;;
84284;SDS011;74441;49.470;11.032;2024-03-08T10:29:24;3.70;;;2.88;;
84284;SDS011;74441;49.470;11.032;2024-03-08T10:31:49;4.20;;;3.05;;
84284;SDS011;74441;49.470;11.032;2024-03-08T10:34:16;4.03;;;2.95;;
84284;SDS011;74441;49.470;11.032;2024-03-08T10:36:41;4.07;;;3.00;;
84284;SDS011;74441;49.470;11.032;2024-03-08T10:39:11;4.22;;;3.28;;
84284;SDS011;74441;49.470;11.032;2024-03-08T10:41:43;4.80;;;2.92;;
84284;SDS011;74441;49.470;11.032;2024-03-08T10:44:15;4.18;;;2.95;;
84284;SDS011;74441;49.470;11.032;2024-03-08T10:47:08;3.95;;;2.70;;
84284;SDS011;74441;49.470;11.032;2024-03-08T10:49:54;4.32;;;2.85;;
84284;SDS011;74441;49.470;11.032;2024-03-08T10:52:20;3.75;;;2.90;;
84284;SDS011;74441;49.470;11.032;2024-03-08T10:54:45;4.55;;;3.08;;
84284;SDS011;74441;49.470;11.032;2024-03-08T10:57:12;4.78;;;3.38;;
84284;SDS011;74441;49.470;11.032;2024-03-08T10:59:40;4.60;;;2.90;;
84284;SDS011;74441;49.470;11.032;2024-03-08T11:02:08;4.22;;;3.20;;
84284;SDS011;74441;49.470;11.032;2024-03-08T11:07:02;4.03;;;2.72;;
84284;SDS011;74441;49.470;11.032;2024-03-08T11:09:33;3.47;;;2.70;;
84284;SDS011;74441;49.470;11.032;2024-03-08T11:14:50;4.03;;;2.70;;
84284;SDS011;74441;49.470;11.032;2024-03-08T11:17:20;3.63;;;2.83;;
84284;SDS011;74441;49.470;11.032;2024-03-08T11:20:18;3.50;;;2.40;;
84284;SDS011;74441;49.470;11.032;2024-03-08T11:23:03;4.15;;;2.63;;
84284;SDS011;74441;49.470;11.032;2024-03-08T11:30:44;3.85;;;2.40;;
84284;SDS011;74441;49.470;11.032;2024-03-08T11:33:13;3.30;;;2.50;;
84284;SDS011;74441;49.470;11.032;2024-03-08T11:35:39;3.65;;;2.45;;
84284;SDS011;74441;49.470;11.032;2024-03-08T11:38:07;3.72;;;2.55;;
84284;SDS011;74441;49.470;11.032;2024-03-08T11:40:33;3.70;;;2.60;;
84284;SDS011;74441;49.470;11.032;2024-03-08T11:43:00;3.65;;;2.53;;
84284;SDS011;74441;49.470;11.032;2024-03-08T11:45:28;3.72;;;2.90;;
84284;SDS011;74441;49.470;11.032;2024-03-08T11:47:53;3.55;;;2.50;;
84284;SDS011;74441;49.470;11.032;2024-03-08T11:50:19;4.75;;;2.60;;
84284;SDS011;74441;49.470;11.032;2024-03-08T11:52:46;3.50;;;2.42;;
84284;SDS011;74441;49.470;11.032;2024-03-08T11:55:11;4.00;;;2.53;;
84284;SDS011;74441;49.470;11.032;2024-03-08T11:57:37;4.80;;;2.65;;
84284;SDS011;74441;49.470;11.032;2024-03-08T12:00:03;3.70;;;2.60;;
84284;SDS011;74441;49.470;11.032;2024-03-08T12:02:35;3.35;;;2.47;;
84284;SDS011;74441;49.470;11.032;2024-03-08T12:05:05;3.65;;;2.60;;
84284;SDS011;74441;49.470;11.032;2024-03-08T12:07:31;3.60;;;2.60;;
84284;SDS011;74441;49.470;11.032;2024-03-08T12:10:20;3.65;;;2.35;;
84284;SDS011;74441;49.470;11.032;2024-03-08T12:12:47;3.65;;;2.65;;
84284;SDS011;74441;49.470;11.032;2024-03-08T12:15:15;3.70;;;2.50;;
84284;SDS011;74441;49.470;11.032;2024-03-08T12:17:40;3.47;;;2.25;;
84284;SDS011;74441;49.470;11.032;2024-03-08T12:20:20;3.70;;;2.17;;
84284;SDS011;74441;49.470;11.032;2024-03-08T12:22:47;2.92;;;2.30;;
84284;SDS011;74441;49.470;11.032;2024-03-08T12:25:12;3.58;;;2.35;;
84284;SDS011;74441;49.470;11.032;2024-03-08T12:27:39;3.72;;;2.42;;
84284;SDS011;74441;49.470;11.032;2024-03-08T12:32:46;3.35;;;2.47;;
84284;SDS011;74441;49.470;11.032;2024-03-08T12:35:18;3.53;;;2.28;;
84284;SDS011;74441;49.470;11.032;2024-03-08T12:37:43;4.40;;;2.83;;
84284;SDS011;74441;49.470;11.032;2024-03-08T12:40:09;3.80;;;2.58;;
84284;SDS011;74441;49.470;11.032;2024-03-08T12:42:35;3.78;;;2.38;;
84284;SDS011;74441;49.470;11.032;2024-03-08T12:45:00;3.10;;;2.40;;
84284;SDS011;74441;49.470;11.032;2024-03-08T12:47:27;3.67;;;2.42;;
84284;SDS011;74441;49.470;11.032;2024-03-08T12:49:54;3.13;;;2.33;;
84284;SDS011;74441;49.470;11.032;2024-03-08T12:52:20;3.90;;;2.28;;
84284;SDS011;74441;49.470;11.032;2024-03-08T12:54:45;3.57;;;2.43;;
84284;SDS011;74441;49.470;11.032;2024-03-08T12:57:12;4.55;;;2.90;;
84284;SDS011;74441;49.470;11.032;2024-03-08T12:59:37;3.80;;;2.65;;
84284;SDS011;74441;49.470;11.032;2024-03-08T13:02:03;3.47;;;2.40;;
84284;SDS011;74441;49.470;11.032;2024-03-08T13:04:30;4.85;;;2.80;;
84284;SDS011;74441;49.470;11.032;2024-03-08T13:06:56;3.58;;;2.35;;
84284;SDS011;74441;49.470;11.032;2024-03-08T13:09:21;3.28;;;2.30;;
84284;SDS011;74441;49.470;11.032;2024-03-08T13:11:47;3.47;;;2.40;;
84284;SDS011;74441;49.470;11.032;2024-03-08T13:14:12;3.53;;;2.40;;
84284;SDS011;74441;49.470;11.032;2024-03-08T13:16:38;3.35;;;2.50;;
84284;SDS011;74441;49.470;11.032;2024-03-08T13:19:03;3.28;;;2.40;;
84284;SDS011;74441;49.470;11.032;2024-03-08T13:21:29;3.65;;;2.45;;
84284;SDS011;74441;49.470;11.032;2024-03-08T13:23:55;3.10;;;2.10;;
84284;SDS011;74441;49.470;11.032;2024-03-08T13:26:20;3.10;;;2.30;;
84284;SDS011;74441;49.470;11.032;2024-03-08T13:28:46;3.42;;;2.30;;
84284;SDS011;74441;49.470;11.032;2024-03-08T13:31:13;3.53;;;2.20;;
84284;SDS011;74441;49.470;11.032;2024-03-08T13:33:39;3.85;;;2.10;;
84284;SDS011;74441;49.470;11.032;2024-03-08T13:36:07;4.53;;;2.60;;
84284;SDS011;74441;49.470;11.032;2024-03-08T13:38:39;3.42;;;2.33;;
84284;SDS011;74441;49.470;11.032;2024-03-08T13:41:07;2.90;;;2.13;;
84284;SDS011;74441;49.470;11.032;2024-03-08T13:43:33;3.65;;;2.80;;
84284;SDS011;74441;49.470;11.032;2024-03-08T13:45:59;4.00;;;2.78;;
84284;SDS011;74441;49.470;11.032;2024-03-08T13:48:24;4.23;;;2.73;;
84284;SDS011;74441;49.470;11.032;2024-03-08T13:50:49;5.27;;;3.00;;
84284;SDS011;74441;49.470;11.032;2024-03-08T13:53:16;4.40;;;3.00;;
84284;SDS011;74441;49.470;11.032;2024-03-08T13:55:42;4.68;;;2.80;;
84284;SDS011;74441;49.470;11.032;2024-03-08T13:58:08;3.80;;;2.83;;
84284;SDS011;74441;49.470;11.032;2024-03-08T14:00:34;4.63;;;2.67;;
84284;SDS011;74441;49.470;11.032;2024-03-08T14:03:01;4.30;;;2.58;;
84284;SDS011;74441;49.470;11.032;2024-03-08T14:05:30;3.63;;;2.72;;
84284;SDS011;74441;49.470;11.032;2024-03-08T14:07:59;3.40;;;2.70;;
84284;SDS011;74441;49.470;11.032;2024-03-08T14:10:28;4.15;;;2.83;;
84284;SDS011;74441;49.470;11.032;2024-03-08T14:12:56;3.80;;;2.85;;
84284;SDS011;74441;49.470;11.032;2024-03-08T14:15:21;3.90;;;2.83;;
84284;SDS011;74441;49.470;11.032;2024-03-08T14:17:52;4.30;;;2.83;;
84284;SDS011;74441;49.470;11.032;2024-03-08T14:20:17;3.78;;;2.70;;
84284;SDS011;74441;49.470;11.032;2024-03-08T14:22:43;4.13;;;2.87;;
84284;SDS011;74441;49.470;11.032;2024-03-08T14:25:08;3.80;;;2.80;;
84284;SDS011;74441;49.470;11.032;2024-03-08T14:27:42;3.65;;;2.55;;
84284;SDS011;74441;49.470;11.032;2024-03-08T14:30:11;4.68;;;2.88;;
84284;SDS011;74441;49.470;11.032;2024-03-08T14:32:37;4.18;;;2.63;;
84284;SDS011;74441;49.470;11.032;2024-03-08T14:35:06;3.67;;;2.83;;
84284;SDS011;74441;49.470;11.032;2024-03-08T14:37:31;3.92;;;2.80;;
84284;SDS011;74441;49.470;11.032;2024-03-08T14:39:57;3.73;;;2.60;;
84284;SDS011;74441;49.470;11.032;2024-03-08T14:42:22;3.60;;;2.60;;
84284;SDS011;74441;49.470;11.032;2024-03-08T14:44:48;4.23;;;2.90;;